Time;durP1;ratioP1;P1;durP2;ratioP2;P2;SDS_P1;SDS_P2;PMS_P1;PMS_P2;Temp;Humidity;BMP_temperature;BMP_pressure;BME280_temperature;BME280_humidity;BME280_pressure;Samples;Min_cycle;Max_cycle;Signal;HPM_P1;HPM_P2
2021/12/25 00:01:24;;;;;;;5.28;3.72;;;3.40;90.20;;;;;;1905358;75;21088;-41
2021/12/25 00:03:55;;;;;;;4.53;3.10;;;3.40;90.30;;;;;;1905265;75;20991;-42
2021/12/25 00:06:25;;;;;;;6.60;3.42;;;3.40;90.10;;;;;;1905397;75;21063;-41
2021/12/25 00:08:54;;;;;;;5.25;2.95;;;3.40;89.90;;;;;;1905508;75;21059;-41
2021/12/25 00:11:23;;;;;;;5.40;3.75;;;3.50;90.10;;;;;;1905260;75;21077;-40
2021/12/25 00:13:53;;;;;;;6.08;3.72;;;3.50;90.40;;;;;;1905233;74;21046;-40
2021/12/25 00:16:22;;;;;;;5.22;3.52;;;3.50;90.30;;;;;;1905270;75;21015;-41
2021/12/25 00:18:52;;;;;;;2.95;2.62;;;3.50;90.20;;;;;;1905351;75;21027;-41
2021/12/25 00:21:21;;;;;;;3.70;2.45;;;3.50;91.00;;;;;;1905284;75;21077;-40
2021/12/25 00:23:51;;;;;;;8.20;3.83;;;3.50;90.90;;;;;;1905330;75;21082;-41
2021/12/25 00:26:42;;;;;;;3.75;2.60;;;3.60;90.20;;;;;;1905265;74;21485;-40
2021/12/25 00:34:42;;;;;;;3.87;2.72;;;3.60;90.00;;;;;;1905453;75;21036;-40
2021/12/25 00:37:12;;;;;;;5.65;3.65;;;3.60;90.50;;;;;;1905392;75;21023;-41
2021/12/25 00:39:43;;;;;;;3.20;2.67;;;3.60;90.10;;;;;;1905434;75;21077;-40
2021/12/25 00:42:13;;;;;;;8.38;3.33;;;3.60;90.30;;;;;;1905464;75;21622;-40
2021/12/25 00:44:42;;;;;;;4.05;2.50;;;3.70;90.60;;;;;;1905498;75;21023;-41
2021/12/25 00:47:12;;;;;;;2.22;2.00;;;3.70;90.90;;;;;;1905314;75;21027;-40
2021/12/25 00:49:41;;;;;;;6.42;3.27;;;3.70;90.70;;;;;;1905379;74;21059;-40
2021/12/25 00:52:11;;;;;;;3.95;2.62;;;3.70;90.80;;;;;;1905424;75;21023;-40
2021/12/25 00:54:40;;;;;;;8.80;2.95;;;3.70;91.00;;;;;;1905382;75;21019;-40
2021/12/25 00:57:10;;;;;;;3.65;2.80;;;3.80;91.00;;;;;;1905372;74;21019;-42
2021/12/25 00:59:39;;;;;;;5.47;3.37;;;3.80;90.70;;;;;;1905336;74;21019;-41
2021/12/25 01:02:09;;;;;;;4.20;2.85;;;3.80;90.30;;;;;;1892536;75;21023;-41
2021/12/25 01:04:38;;;;;;;2.20;1.92;;;3.80;90.70;;;;;;1905394;74;21089;-41
2021/12/25 01:07:08;;;;;;;2.37;2.02;;;3.80;90.70;;;;;;1905340;75;21007;-40
2021/12/25 01:09:37;;;;;;;2.87;2.33;;;3.80;90.80;;;;;;1905372;75;21081;-41
2021/12/25 01:12:08;;;;;;;3.27;2.58;;;3.80;90.70;;;;;;1905349;74;21101;-40
2021/12/25 01:14:45;;;;;;;3.10;2.30;;;3.90;90.60;;;;;;1905375;75;21092;-41
2021/12/25 01:17:40;;;;;;;3.58;2.55;;;3.80;90.60;;;;;;1902893;74;21071;-40
2021/12/25 01:31:05;;;;;;;3.67;2.30;;;3.80;91.00;;;;;;1905426;75;21048;-40
2021/12/25 01:34:54;;;;;;;4.37;3.12;;;3.90;91.10;;;;;;1904631;74;21000;-40
2021/12/25 01:39:18;;;;;;;2.02;1.57;;;3.80;90.80;;;;;;1905310;74;21075;-40
2021/12/25 01:49:43;;;;;;;3.10;1.98;;;3.90;91.10;;;;;;1910107;74;21095;-40
2021/12/25 01:52:12;;;;;;;2.83;2.40;;;3.90;91.20;;;;;;1924694;74;21105;-40
2021/12/25 01:54:41;;;;;;;3.80;2.60;;;3.90;91.20;;;;;;1924816;74;21093;-41
2021/12/25 01:57:10;;;;;;;2.22;1.85;;;3.90;91.50;;;;;;1924689;74;21026;-40
2021/12/25 01:59:40;;;;;;;2.50;2.02;;;3.90;91.10;;;;;;1924863;74;21127;-41
2021/12/25 02:02:10;;;;;;;3.40;2.42;;;3.90;90.80;;;;;;1924783;74;21453;-40
2021/12/25 02:04:39;;;;;;;4.47;2.60;;;3.90;90.80;;;;;;1924750;74;21073;-40
2021/12/25 02:07:09;;;;;;;2.62;1.95;;;3.90;90.90;;;;;;1924802;74;21046;-40
2021/12/25 02:09:39;;;;;;;2.30;2.02;;;3.90;91.20;;;;;;1924721;74;21096;-40
2021/12/25 02:12:11;;;;;;;1.95;1.60;;;3.90;91.10;;;;;;1924760;74;21023;-40
2021/12/25 02:14:43;;;;;;;2.40;1.77;;;3.90;90.80;;;;;;1924717;74;21453;-40
2021/12/25 02:17:36;;;;;;;3.20;1.80;;;3.90;90.70;;;;;;1924831;74;21043;-40
2021/12/25 02:20:20;;;;;;;3.52;1.22;;;3.90;90.90;;;;;;1923911;74;21152;-40
2021/12/25 02:22:49;;;;;;;2.58;1.85;;;3.90;91.30;;;;;;1924694;74;21084;-40
2021/12/25 02:25:18;;;;;;;4.28;2.12;;;3.90;90.70;;;;;;1924854;74;20999;-40
2021/12/25 02:27:48;;;;;;;1.35;1.25;;;3.90;90.70;;;;;;1924674;74;21018;-40
2021/12/25 02:30:18;;;;;;;2.15;1.75;;;3.90;91.10;;;;;;1903949;74;21030;-40
2021/12/25 02:32:49;;;;;;;4.10;1.72;;;4.00;90.90;;;;;;1903928;74;21031;-40
2021/12/25 02:35:19;;;;;;;2.65;2.05;;;4.00;90.60;;;;;;1924668;74;21001;-40
2021/12/25 02:37:48;;;;;;;1.67;1.30;;;4.00;90.80;;;;;;1924830;74;21137;-40
2021/12/25 02:40:19;;;;;;;1.70;1.60;;;4.00;91.10;;;;;;1924964;74;21026;-40
2021/12/25 02:42:48;;;;;;;2.35;2.15;;;4.00;90.90;;;;;;1924696;74;20994;-40
2021/12/25 02:45:23;;;;;;;2.55;1.75;;;4.00;90.80;;;;;;1924745;74;21027;-40
2021/12/25 02:47:55;;;;;;;1.22;1.10;;;4.00;91.00;;;;;;1924835;74;21019;-40
2021/12/25 02:50:27;;;;;;;2.60;1.60;;;4.00;90.90;;;;;;1924609;74;21595;-40
2021/12/25 02:52:59;;;;;;;1.20;1.10;;;4.00;90.90;;;;;;1924719;74;21026;-39
2021/12/25 02:55:29;;;;;;;1.10;1.00;;;4.00;91.20;;;;;;1924621;74;21064;-40
2021/12/25 02:57:59;;;;;;;10.00;6.37;;;4.00;91.10;;;;;;1924693;74;21027;-40
2021/12/25 03:00:44;;;;;;;2.25;1.55;;;4.10;91.00;;;;;;1924465;74;21036;-40
2021/12/25 03:03:13;;;;;;;1.72;1.17;;;4.10;90.90;;;;;;1924787;74;21108;-40
2021/12/25 03:05:43;;;;;;;1.00;0.90;;;4.10;91.20;;;;;;1924770;74;21096;-40
2021/12/25 03:08:14;;;;;;;1.60;1.45;;;4.10;91.20;;;;;;1924687;74;21027;-40
2021/12/25 03:10:53;;;;;;;1.17;1.00;;;4.10;91.10;;;;;;1923157;74;21059;-40
2021/12/25 03:13:34;;;;;;;1.05;1.00;;;4.10;91.10;;;;;;1924739;74;21050;-40
2021/12/25 03:16:05;;;;;;;1.55;1.22;;;4.10;90.90;;;;;;1924626;74;21042;-40
2021/12/25 03:18:40;;;;;;;4.15;1.30;;;4.10;91.20;;;;;;1924788;74;21088;-40
2021/12/25 03:21:07;;;;;;;1.12;1.02;;;4.20;91.10;;;;;;1924576;74;21066;-40
2021/12/25 03:23:38;;;;;;;1.60;1.50;;;4.20;91.10;;;;;;1924918;74;21018;-39
2021/12/25 03:26:08;;;;;;;1.35;1.25;;;4.20;91.00;;;;;;1924905;74;21030;-40
2021/12/25 03:28:41;;;;;;;1.25;1.15;;;4.20;91.10;;;;;;1924869;74;21096;-40
2021/12/25 03:31:16;;;;;;;2.83;2.20;;;4.20;91.10;;;;;;1924824;74;21081;-40
2021/12/25 03:33:45;;;;;;;2.02;1.72;;;4.20;90.90;;;;;;1924644;74;21070;-40
2021/12/25 03:36:15;;;;;;;1.27;1.10;;;4.20;91.20;;;;;;1924865;74;21018;-40
2021/12/25 03:38:46;;;;;;;1.30;1.20;;;4.20;91.30;;;;;;1924832;74;21027;-40
2021/12/25 03:41:16;;;;;;;7.28;2.75;;;4.20;91.10;;;;;;1924736;74;21108;-40
2021/12/25 03:43:45;;;;;;;1.35;1.25;;;4.20;91.10;;;;;;1924931;74;21031;-40
2021/12/25 03:46:17;;;;;;;2.05;1.85;;;4.30;91.10;;;;;;1924718;74;21030;-40
2021/12/25 03:59:58;;;;;;;1.77;1.52;;;4.30;91.10;;;;;;1924762;74;21030;-40
2021/12/25 04:02:26;;;;;;;1.87;1.47;;;4.30;91.20;;;;;;1923739;74;21047;-40
2021/12/25 04:04:52;;;;;;;2.00;1.50;;;4.30;91.20;;;;;;1924380;74;21058;-40
2021/12/25 04:07:59;;;;;;;1.45;1.35;;;4.30;91.20;;;;;;1924847;74;21133;-40
2021/12/25 04:09:53;;;;;;;2.02;1.82;;;4.30;91.20;;;;;;1915649;74;21023;-41
2021/12/25 04:12:23;;;;;;;3.45;1.70;;;4.40;91.10;;;;;;1924990;74;21011;-40
2021/12/25 04:14:53;;;;;;;2.52;1.92;;;4.40;91.30;;;;;;1924876;74;21176;-40
2021/12/25 04:17:22;;;;;;;2.42;1.87;;;4.40;91.30;;;;;;1924833;74;21014;-40
2021/12/25 04:19:52;;;;;;;1.75;1.37;;;4.40;91.30;;;;;;1924900;74;21141;-40
2021/12/25 04:22:32;;;;;;;1.60;1.50;;;4.40;91.20;;;;;;1924863;74;21466;-40
2021/12/25 04:24:56;;;;;;;1.40;1.30;;;4.50;91.30;;;;;;1924191;74;20995;-40
2021/12/25 04:27:26;;;;;;;2.20;1.57;;;4.50;91.40;;;;;;1924820;74;21065;-40
2021/12/25 04:30:03;;;;;;;2.00;1.67;;;4.50;91.30;;;;;;1924969;74;21147;-40
2021/12/25 04:32:56;;;;;;;2.58;1.65;;;4.50;91.30;;;;;;1924141;74;21025;-40
2021/12/25 04:49:39;;;;;;;1.37;1.22;;;4.60;91.30;;;;;;1924789;74;21050;-41
2021/12/25 05:03:21;;;;;;;3.72;1.92;;;4.60;91.10;;;;;;1924945;74;21043;-42
2021/12/25 05:05:42;;;;;;;1.42;1.32;;;4.60;91.00;;;;;;1922388;74;21134;-41
2021/12/25 05:08:28;;;;;;;3.33;1.90;;;4.60;91.20;;;;;;1923986;74;21086;-40
2021/12/25 05:10:58;;;;;;;6.03;1.92;;;4.70;91.20;;;;;;1924736;74;21014;-40
2021/12/25 05:13:27;;;;;;;2.77;2.12;;;4.70;91.20;;;;;;1924761;74;21135;-41
2021/12/25 05:15:57;;;;;;;2.80;1.95;;;4.60;91.10;;;;;;1924754;74;21070;-41
2021/12/25 05:18:27;;;;;;;1.75;1.55;;;4.70;91.20;;;;;;1924918;74;21046;-41
2021/12/25 05:20:56;;;;;;;2.25;1.80;;;4.70;91.10;;;;;;1924749;74;21100;-41
2021/12/25 05:23:25;;;;;;;2.67;1.75;;;4.70;91.20;;;;;;1924832;74;21092;-41
2021/12/25 05:25:55;;;;;;;4.97;2.58;;;4.70;91.20;;;;;;1924679;74;21014;-41
2021/12/25 05:28:26;;;;;;;1.65;1.50;;;4.70;91.20;;;;;;1924802;74;21046;-42
2021/12/25 05:30:57;;;;;;;2.05;1.37;;;4.70;91.10;;;;;;1924401;74;21114;-41
2021/12/25 05:33:28;;;;;;;2.20;1.75;;;4.80;91.20;;;;;;1921824;74;21075;-41
2021/12/25 05:35:59;;;;;;;9.20;5.55;;;4.80;91.30;;;;;;1922384;74;21140;-41
2021/12/25 05:38:29;;;;;;;3.40;1.90;;;4.80;91.30;;;;;;1919311;74;21038;-41
2021/12/25 05:41:01;;;;;;;2.95;1.52;;;4.80;91.40;;;;;;1922500;74;21641;-41
2021/12/25 05:43:30;;;;;;;1.00;0.93;;;4.80;91.40;;;;;;1924817;74;21084;-41
2021/12/25 05:46:00;;;;;;;1.62;1.52;;;4.80;91.50;;;;;;1924692;74;21030;-41
2021/12/25 05:48:35;;;;;;;2.20;1.77;;;4.80;91.30;;;;;;1923068;74;21127;-41
2021/12/25 05:51:04;;;;;;;1.60;1.15;;;4.90;91.50;;;;;;1902505;74;21082;-41
2021/12/25 05:53:51;;;;;;;2.37;1.50;;;4.90;91.50;;;;;;1897696;74;21127;-41
2021/12/25 05:56:31;;;;;;;1.27;1.07;;;4.90;91.40;;;;;;1922418;74;21071;-41
2021/12/25 05:59:17;;;;;;;2.30;1.27;;;4.90;91.40;;;;;;1923433;74;21110;-41
2021/12/25 06:01:57;;;;;;;2.90;2.00;;;4.90;91.50;;;;;;1921093;74;21143;-41
2021/12/25 06:04:28;;;;;;;4.00;1.42;;;4.90;91.40;;;;;;1924644;74;21148;-41
2021/12/25 06:06:57;;;;;;;1.12;1.02;;;4.90;91.70;;;;;;1924872;74;21139;-41
2021/12/25 06:09:28;;;;;;;2.87;1.17;;;4.90;91.70;;;;;;1924790;74;21030;-41
2021/12/25 06:11:58;;;;;;;1.65;1.50;;;4.90;91.70;;;;;;1924842;74;21042;-41
2021/12/25 06:14:27;;;;;;;1.95;1.80;;;4.90;91.70;;;;;;1924634;74;21073;-41
2021/12/25 06:17:07;;;;;;;1.15;1.02;;;4.90;91.80;;;;;;1900214;74;21102;-41
2021/12/25 06:19:38;;;;;;;1.85;1.60;;;5.00;91.90;;;;;;1922450;74;21050;-41
2021/12/25 06:22:12;;;;;;;2.98;1.57;;;5.00;92.00;;;;;;1917116;74;21055;-41
2021/12/25 06:24:55;;;;;;;1.40;1.30;;;5.00;92.00;;;;;;1922643;74;21038;-41
2021/12/25 06:27:26;;;;;;;1.67;1.37;;;5.00;91.90;;;;;;1903022;74;21019;-41
2021/12/25 06:30:10;;;;;;;2.15;1.65;;;5.10;91.90;;;;;;1876285;74;21159;-41
2021/12/25 06:32:43;;;;;;;;;;;5.10;91.70;;;;;;1925446;74;21066;-41
2021/12/25 06:35:31;;;;;;;1.27;1.15;;;5.10;91.90;;;;;;1924750;74;20127;-42
2021/12/25 06:38:05;;;;;;;1.98;1.32;;;5.10;91.80;;;;;;1924833;74;21030;-41
2021/12/25 06:40:36;;;;;;;1.75;1.40;;;5.10;91.80;;;;;;1923462;74;21062;-42
2021/12/25 06:43:06;;;;;;;2.35;1.60;;;5.20;91.60;;;;;;1924685;74;21100;-41
2021/12/25 06:45:35;;;;;;;1.30;1.20;;;5.10;91.60;;;;;;1924589;74;21092;-41
2021/12/25 06:48:05;;;;;;;2.83;1.45;;;5.20;91.70;;;;;;1924798;74;21084;-41
2021/12/25 06:50:36;;;;;;;2.83;1.22;;;5.20;91.50;;;;;;1879297;74;21103;-41
2021/12/25 06:53:07;;;;;;;1.72;1.42;;;5.20;91.50;;;;;;1924168;74;21108;-41
2021/12/25 06:55:41;;;;;;;1.67;1.27;;;5.20;91.40;;;;;;1917545;74;21026;-41
2021/12/25 06:58:15;;;;;;;1.57;1.25;;;5.20;91.40;;;;;;1922458;74;21829;-41
2021/12/25 07:00:45;;;;;;;2.92;1.20;;;5.20;91.50;;;;;;1924786;74;21082;-41
2021/12/25 07:03:14;;;;;;;1.17;1.10;;;5.20;91.50;;;;;;1924795;74;21082;-41
2021/12/25 07:06:01;;;;;;;1.15;0.93;;;5.20;91.40;;;;;;1924732;74;21030;-41
2021/12/25 07:08:50;;;;;;;2.02;1.42;;;5.20;91.50;;;;;;1923657;74;21158;-40
2021/12/25 07:11:36;;;;;;;1.92;1.20;;;5.20;91.50;;;;;;1892708;74;21034;-40
2021/12/25 07:14:11;;;;;;;2.30;1.53;;;5.20;91.50;;;;;;1922803;74;21086;-40
2021/12/25 07:16:52;;;;;;;2.85;1.27;;;5.20;91.50;;;;;;1924594;74;21038;-40
2021/12/25 07:19:23;;;;;;;3.12;1.90;;;5.20;91.50;;;;;;1924604;74;21107;-40
2021/12/25 07:22:08;;;;;;;3.70;1.85;;;5.20;91.70;;;;;;1923014;74;21050;-42
2021/12/25 07:24:58;;;;;;;1.80;1.50;;;5.20;91.60;;;;;;1852983;77;21134;-40
2021/12/25 07:27:46;;;;;;;2.30;1.72;;;5.20;91.60;;;;;;1852995;77;21147;-41
2021/12/25 07:30:15;;;;;;;1.35;1.20;;;5.20;91.50;;;;;;1888391;74;21109;-41
2021/12/25 07:32:45;;;;;;;4.58;2.08;;;5.30;91.70;;;;;;1924772;74;21023;-41
2021/12/25 07:35:14;;;;;;;2.77;1.62;;;5.30;91.70;;;;;;1924700;74;21088;-41
2021/12/25 07:37:44;;;;;;;2.00;1.60;;;5.30;91.60;;;;;;1924843;74;21015;-41
2021/12/25 07:40:13;;;;;;;3.55;1.60;;;5.30;91.50;;;;;;1924639;74;21030;-40
2021/12/25 07:42:43;;;;;;;2.83;1.57;;;5.40;91.40;;;;;;1924766;74;21023;-41
2021/12/25 07:45:26;;;;;;;1.30;1.20;;;5.40;91.60;;;;;;1895794;74;21050;-41
2021/12/25 07:47:59;;;;;;;1.42;1.32;;;5.40;91.80;;;;;;1924882;74;21080;-41
2021/12/25 07:50:28;;;;;;;1.25;1.00;;;5.40;91.50;;;;;;1924656;74;21011;-41
2021/12/25 07:52:58;;;;;;;2.58;1.40;;;5.50;91.50;;;;;;1924834;74;21125;-41
2021/12/25 07:55:32;;;;;;;1.87;1.20;;;5.60;91.50;;;;;;1924696;74;21070;-41
2021/12/25 07:58:01;;;;;;;1.83;1.27;;;5.60;91.80;;;;;;1925078;74;21010;-41
2021/12/25 08:00:31;;;;;;;2.75;0.95;;;5.60;91.70;;;;;;1924659;74;20999;-41
2021/12/25 08:03:00;;;;;;;4.00;1.77;;;5.70;91.80;;;;;;1924798;74;20995;-41
2021/12/25 08:05:30;;;;;;;3.85;1.90;;;5.70;91.50;;;;;;1924696;74;21025;-41
2021/12/25 08:07:59;;;;;;;2.75;1.75;;;5.70;91.70;;;;;;1924813;74;21042;-41
2021/12/25 08:10:28;;;;;;;2.17;1.67;;;5.80;91.60;;;;;;1924776;74;21026;-41
2021/12/25 08:13:00;;;;;;;1.45;1.15;;;5.80;92.00;;;;;;1924835;74;21135;-40
2021/12/25 08:15:30;;;;;;;2.05;1.30;;;5.90;91.50;;;;;;1924611;74;21058;-41
2021/12/25 08:18:03;;;;;;;1.75;1.25;;;5.90;91.50;;;;;;1924613;74;21050;-40
2021/12/25 08:20:35;;;;;;;1.67;1.17;;;5.90;91.50;;;;;;1924679;74;21059;-41
2021/12/25 08:23:22;;;;;;;1.20;1.00;;;5.90;91.40;;;;;;1924726;74;21109;-41
2021/12/25 08:25:59;;;;;;;1.05;0.90;;;5.90;91.30;;;;;;1921078;74;21114;-41
2021/12/25 08:28:46;;;;;;;1.52;1.00;;;5.90;91.30;;;;;;1924692;74;21105;-41
2021/12/25 08:31:33;;;;;;;1.80;1.10;;;5.90;91.40;;;;;;1924642;74;21022;-41
2021/12/25 08:34:21;;;;;;;0.85;0.85;;;5.90;91.40;;;;;;1924694;74;21101;-41
2021/12/25 08:36:51;;;;;;;2.55;2.17;;;6.00;91.40;;;;;;1923434;74;21078;-41
2021/12/25 08:39:21;;;;;;;2.65;1.30;;;5.90;91.30;;;;;;1924705;74;21038;-41
2021/12/25 08:41:50;;;;;;;1.27;0.98;;;6.00;91.30;;;;;;1924697;74;21103;-42
2021/12/25 08:44:33;;;;;;;7.47;3.77;;;6.00;91.30;;;;;;1924764;74;21023;-41
2021/12/25 08:46:56;;;;;;;2.17;1.57;;;6.00;91.40;;;;;;1922771;74;21038;-41
2021/12/25 08:49:28;;;;;;;5.12;1.30;;;6.00;91.20;;;;;;1924206;74;21063;-41
2021/12/25 08:52:00;;;;;;;1.82;1.25;;;6.00;91.30;;;;;;1924721;74;21444;-41
2021/12/25 08:54:30;;;;;;;2.52;1.25;;;6.00;91.20;;;;;;1924469;74;21112;-41
2021/12/25 08:57:00;;;;;;;1.75;1.20;;;6.10;91.10;;;;;;1924742;74;21096;-41
2021/12/25 08:59:30;;;;;;;1.52;1.20;;;6.10;91.30;;;;;;1924875;74;21007;-41
2021/12/25 09:01:59;;;;;;;1.50;1.02;;;6.10;91.20;;;;;;1924794;74;21059;-41
2021/12/25 09:04:29;;;;;;;1.65;1.05;;;6.10;91.10;;;;;;1924792;74;21030;-41
2021/12/25 09:06:58;;;;;;;1.70;1.40;;;6.20;91.10;;;;;;1924814;74;21065;-41
2021/12/25 09:09:27;;;;;;;3.00;1.60;;;6.20;91.10;;;;;;1924720;74;21028;-42
2021/12/25 09:11:57;;;;;;;1.55;1.27;;;6.20;91.10;;;;;;1924729;74;21090;-41
2021/12/25 09:14:26;;;;;;;1.27;1.17;;;6.20;91.20;;;;;;1924723;74;21027;-41
2021/12/25 09:16:55;;;;;;;1.42;1.12;;;6.30;91.10;;;;;;1924767;74;20995;-41
2021/12/25 09:19:24;;;;;;;2.40;1.40;;;6.30;91.10;;;;;;1924761;74;21015;-41
2021/12/25 09:21:54;;;;;;;1.50;1.40;;;6.30;91.00;;;;;;1924651;74;21574;-41
2021/12/25 09:24:24;;;;;;;1.27;1.10;;;6.30;91.00;;;;;;1924770;74;21023;-41
2021/12/25 09:26:53;;;;;;;1.20;1.10;;;6.30;91.00;;;;;;1924710;74;21022;-40
2021/12/25 09:29:22;;;;;;;1.42;1.32;;;6.40;91.10;;;;;;1924762;74;21018;-40
2021/12/25 09:31:51;;;;;;;2.72;1.27;;;6.40;91.10;;;;;;1924674;74;21093;-40
2021/12/25 09:34:21;;;;;;;2.25;1.10;;;6.40;90.90;;;;;;1924665;74;21097;-40
2021/12/25 09:36:50;;;;;;;1.20;1.10;;;6.40;91.10;;;;;;1924677;74;21027;-40
2021/12/25 09:39:19;;;;;;;2.12;1.10;;;6.40;91.10;;;;;;1924689;74;21077;-40
2021/12/25 09:41:49;;;;;;;1.90;1.40;;;6.40;91.10;;;;;;1924685;74;21030;-40
2021/12/25 09:44:18;;;;;;;2.98;1.87;;;6.40;91.10;;;;;;1924692;74;21073;-40
2021/12/25 09:46:47;;;;;;;1.52;1.20;;;6.40;91.10;;;;;;1924795;74;21433;-40
2021/12/25 09:49:17;;;;;;;2.90;1.80;;;6.50;91.30;;;;;;1924807;74;21113;-40
2021/12/25 09:51:46;;;;;;;1.90;1.12;;;6.50;91.30;;;;;;1924776;74;21492;-40
2021/12/25 09:54:16;;;;;;;3.00;1.50;;;6.50;91.20;;;;;;1924687;74;21485;-41
2021/12/25 09:56:48;;;;;;;1.85;1.20;;;6.50;91.10;;;;;;1924935;74;21046;-40
2021/12/25 09:59:17;;;;;;;1.40;1.25;;;6.60;91.20;;;;;;1924750;74;21058;-40
2021/12/25 10:01:49;;;;;;;1.67;1.25;;;6.60;91.10;;;;;;1924769;74;21117;-40
2021/12/25 10:04:34;;;;;;;2.55;1.12;;;6.60;91.00;;;;;;1924817;74;21092;-41
2021/12/25 10:07:21;;;;;;;1.32;0.80;;;6.60;90.90;;;;;;1924815;74;21064;-40
2021/12/25 10:10:17;;;;;;;2.33;1.45;;;6.60;91.10;;;;;;1924654;74;20987;-41
2021/12/25 10:12:46;;;;;;;1.40;1.17;;;6.60;90.90;;;;;;1924128;74;21042;-41
2021/12/25 10:15:18;;;;;;;2.17;1.35;;;6.60;90.90;;;;;;1924797;74;21034;-40
2021/12/25 10:17:59;;;;;;;2.10;1.20;;;6.60;91.00;;;;;;1924812;74;21043;-41
2021/12/25 10:20:30;;;;;;;4.17;3.05;;;6.60;91.10;;;;;;1924641;74;20995;-40
2021/12/25 10:23:04;;;;;;;5.47;3.08;;;6.60;91.10;;;;;;1923781;74;21100;-40
2021/12/25 10:25:38;;;;;;;2.22;1.80;;;6.50;91.00;;;;;;1924800;74;21046;-41
2021/12/25 10:28:08;;;;;;;1.60;1.37;;;6.50;91.10;;;;;;1924784;74;21042;-40
2021/12/25 10:30:49;;;;;;;2.92;1.70;;;6.50;91.00;;;;;;1924669;74;21018;-40
2021/12/25 10:33:29;;;;;;;2.22;2.02;;;6.50;91.00;;;;;;1924781;74;21503;-41
2021/12/25 10:36:10;;;;;;;1.90;1.50;;;6.50;91.10;;;;;;1924741;74;21080;-40
2021/12/25 10:38:40;;;;;;;4.10;1.87;;;6.50;91.10;;;;;;1924829;74;21026;-41
2021/12/25 10:41:14;;;;;;;4.03;3.62;;;6.50;91.10;;;;;;1924632;74;21093;-40
2021/12/25 10:43:43;;;;;;;2.47;1.75;;;6.50;91.20;;;;;;1924700;74;21019;-41
2021/12/25 10:46:12;;;;;;;3.55;2.05;;;6.50;91.30;;;;;;1924660;74;21081;-41
2021/12/25 10:48:43;;;;;;;4.17;2.02;;;6.50;91.40;;;;;;1924638;74;20995;-42
2021/12/25 10:51:27;;;;;;;8.53;5.00;;;6.50;91.40;;;;;;1924816;74;20991;-40
2021/12/25 10:53:58;;;;;;;3.70;2.50;;;6.50;91.40;;;;;;1924715;74;21082;-40
2021/12/25 10:56:36;;;;;;;4.20;2.00;;;6.50;91.50;;;;;;1906928;74;21125;-42
2021/12/25 10:59:08;;;;;;;3.67;2.20;;;6.50;91.50;;;;;;1905411;75;21081;-40
2021/12/25 11:01:42;;;;;;;2.37;1.67;;;6.40;91.40;;;;;;1905149;75;21470;-40
2021/12/25 11:04:36;;;;;;;2.92;1.92;;;6.40;91.50;;;;;;1905318;74;20988;-40
2021/12/25 11:07:16;;;;;;;2.67;2.00;;;6.40;91.50;;;;;;1905503;74;20983;-41
2021/12/25 11:10:08;;;;;;;3.12;1.52;;;6.40;91.60;;;;;;1905288;75;21007;-40
2021/12/25 11:12:38;;;;;;;1.55;1.35;;;6.40;91.50;;;;;;1904449;74;21044;-40
2021/12/25 11:15:21;;;;;;;2.25;1.57;;;6.50;91.60;;;;;;1905257;74;21560;-40
2021/12/25 11:17:54;;;;;;;2.67;2.35;;;6.50;91.80;;;;;;1905388;75;21497;-40
2021/12/25 11:20:31;;;;;;;2.67;1.70;;;6.50;91.60;;;;;;1905309;74;21024;-41
2021/12/25 11:23:02;;;;;;;3.45;2.08;;;6.50;91.70;;;;;;1905227;74;21035;-40
2021/12/25 11:25:33;;;;;;;1.30;1.15;;;6.50;91.60;;;;;;1905388;74;21004;-40
2021/12/25 11:28:06;;;;;;;1.90;1.32;;;6.50;91.80;;;;;;1905478;75;21039;-42
2021/12/25 11:30:38;;;;;;;3.08;1.57;;;6.60;91.70;;;;;;1905273;74;21081;-41
2021/12/25 11:33:07;;;;;;;1.65;1.42;;;6.60;91.60;;;;;;1905385;74;21008;-40
2021/12/25 11:35:37;;;;;;;3.20;1.82;;;6.60;91.50;;;;;;1905327;74;21075;-42
2021/12/25 11:38:08;;;;;;;2.17;1.40;;;6.60;91.50;;;;;;1905293;75;21008;-41
2021/12/25 11:40:46;;;;;;;2.70;1.95;;;6.60;91.40;;;;;;1905272;75;21023;-41
2021/12/25 11:43:11;;;;;;;3.92;2.08;;;6.60;91.50;;;;;;1905126;74;21043;-41
2021/12/25 11:45:42;;;;;;;3.30;1.67;;;6.60;91.40;;;;;;1905339;75;21102;-41
2021/12/25 11:48:20;;;;;;;5.60;3.27;;;6.60;91.40;;;;;;1904592;74;21047;-40
2021/12/25 11:50:52;;;;;;;2.33;1.30;;;6.60;91.40;;;;;;1905145;75;21101;-41
2021/12/25 11:53:27;;;;;;;3.17;1.85;;;6.60;91.40;;;;;;1905147;75;21024;-41
2021/12/25 11:58:53;;;;;;;4.15;1.77;;;6.60;91.50;;;;;;1924793;74;21054;-41
2021/12/25 12:01:25;;;;;;;3.02;1.77;;;6.60;91.40;;;;;;1924787;74;21026;-41
2021/12/25 12:04:00;;;;;;;1.72;1.22;;;6.60;91.40;;;;;;1925005;74;21184;-42
2021/12/25 12:06:51;;;;;;;3.25;2.52;;;6.60;91.50;;;;;;1925050;74;21573;-42
2021/12/25 12:09:28;;;;;;;2.50;1.77;;;6.60;91.40;;;;;;1923412;74;21128;-41
2021/12/25 12:12:16;;;;;;;1.62;1.40;;;6.60;91.30;;;;;;1888139;74;21038;-41
2021/12/25 12:15:12;;;;;;;3.60;2.10;;;6.60;91.50;;;;;;1924565;74;21079;-40
2021/12/25 12:18:00;;;;;;;2.75;1.60;;;6.60;91.40;;;;;;1924741;74;21151;-41
2021/12/25 12:20:41;;;;;;;3.05;2.10;;;6.60;91.40;;;;;;1921663;74;21015;-41
2021/12/25 12:23:52;;;;;;;2.90;2.27;;;6.60;91.40;;;;;;1924615;74;21472;-41
2021/12/25 12:26:15;;;;;;;2.80;1.70;;;6.60;91.40;;;;;;1902991;74;21054;-40
2021/12/25 12:28:53;;;;;;;2.10;1.80;;;6.60;91.40;;;;;;1923905;74;21042;-41
2021/12/25 12:31:36;;;;;;;2.98;1.82;;;6.60;91.30;;;;;;1924746;74;21047;-40
2021/12/25 12:34:31;;;;;;;2.58;1.90;;;6.60;91.40;;;;;;1924858;74;21096;-41
2021/12/25 12:37:24;;;;;;;3.15;1.72;;;6.60;91.40;;;;;;1925039;74;21097;-40
2021/12/25 12:40:02;;;;;;;1.82;1.67;;;6.60;91.50;;;;;;1923521;74;21022;-40
2021/12/25 12:42:48;;;;;;;1.50;1.40;;;6.60;91.50;;;;;;1924598;74;21015;-41
2021/12/25 12:45:26;;;;;;;3.17;1.77;;;6.60;91.40;;;;;;1924756;74;21023;-41
2021/12/25 12:48:22;;;;;;;2.02;1.20;;;6.60;91.50;;;;;;1924607;74;21121;-41
2021/12/25 12:50:55;;;;;;;2.55;2.17;;;6.70;91.50;;;;;;1924968;74;21097;-40
2021/12/25 12:53:26;;;;;;;3.20;1.95;;;6.70;91.40;;;;;;1924938;74;21496;-41
2021/12/25 12:55:58;;;;;;;2.30;1.72;;;6.70;91.40;;;;;;1919561;74;21121;-41
2021/12/25 12:58:29;;;;;;;3.55;1.60;;;6.70;91.30;;;;;;1904995;74;20995;-41
2021/12/25 13:01:00;;;;;;;4.78;1.77;;;6.70;91.30;;;;;;1905361;75;20991;-41
2021/12/25 13:03:30;;;;;;;2.47;1.50;;;6.70;91.30;;;;;;1905472;75;21469;-41
2021/12/25 13:06:10;;;;;;;2.85;1.35;;;6.70;91.30;;;;;;1905363;74;21028;-41
2021/12/25 13:08:38;;;;;;;3.02;2.12;;;6.70;91.40;;;;;;1905030;74;21023;-41
2021/12/25 13:11:17;;;;;;;7.75;1.98;;;6.70;91.40;;;;;;1905649;74;21086;-41
2021/12/25 13:13:53;;;;;;;4.85;1.75;;;6.70;91.60;;;;;;1892121;75;21019;-41
2021/12/25 13:16:24;;;;;;;2.80;1.82;;;6.70;91.50;;;;;;1905304;74;21093;-41
2021/12/25 13:18:55;;;;;;;2.40;1.62;;;6.70;91.40;;;;;;1905433;75;21039;-41
2021/12/25 13:21:27;;;;;;;7.90;4.17;;;6.70;91.50;;;;;;1905347;74;21081;-41
2021/12/25 13:24:05;;;;;;;3.35;2.37;;;6.80;91.50;;;;;;1905266;74;21059;-41
2021/12/25 13:26:42;;;;;;;2.80;1.37;;;6.70;91.50;;;;;;1905308;74;21043;-41
2021/12/25 13:29:16;;;;;;;2.12;1.92;;;6.80;91.50;;;;;;1905328;74;21093;-41
2021/12/25 13:31:46;;;;;;;3.70;2.42;;;6.80;91.70;;;;;;1905447;74;21536;-41
2021/12/25 13:34:18;;;;;;;2.30;1.57;;;6.80;91.60;;;;;;1905239;75;21054;-41
2021/12/25 13:36:50;;;;;;;2.12;1.52;;;6.80;91.60;;;;;;1905340;75;21101;-41
2021/12/25 13:39:26;;;;;;;2.77;2.02;;;6.80;91.80;;;;;;1905285;75;21078;-40
2021/12/25 13:42:10;;;;;;;1.98;1.72;;;6.80;91.60;;;;;;1905366;75;21431;-41
2021/12/25 13:44:42;;;;;;;1.47;1.00;;;6.80;91.70;;;;;;1905606;75;21085;-41
2021/12/25 13:47:25;;;;;;;1.55;1.20;;;6.80;91.70;;;;;;1905367;75;21089;-40
2021/12/25 13:50:02;;;;;;;2.45;1.30;;;6.80;91.70;;;;;;1905479;75;21105;-41
2021/12/25 13:52:33;;;;;;;2.22;1.62;;;6.80;91.70;;;;;;1905427;75;21035;-40
2021/12/25 13:55:18;;;;;;;2.75;1.82;;;6.90;91.50;;;;;;1905248;74;21043;-41
2021/12/25 13:57:52;;;;;;;2.02;1.72;;;6.90;91.60;;;;;;1921150;74;21019;-41
2021/12/25 14:00:28;;;;;;;1.95;1.32;;;6.90;91.60;;;;;;1924902;74;21050;-40
2021/12/25 14:03:00;;;;;;;1.75;1.10;;;6.90;91.70;;;;;;1924719;74;21038;-41
2021/12/25 14:05:32;;;;;;;1.60;1.50;;;6.90;91.80;;;;;;1924724;74;21085;-40
2021/12/25 14:08:01;;;;;;;2.20;1.80;;;6.90;91.90;;;;;;1924824;74;21035;-41
2021/12/25 14:10:32;;;;;;;2.80;1.82;;;6.90;91.70;;;;;;1924832;74;21080;-41
2021/12/25 14:13:04;;;;;;;3.70;1.72;;;6.90;91.90;;;;;;1924811;74;21030;-40
2021/12/25 14:15:37;;;;;;;2.80;1.47;;;6.90;91.80;;;;;;1924756;74;21018;-41
2021/12/25 14:18:07;;;;;;;2.35;1.57;;;7.00;92.10;;;;;;1924678;74;21096;-41
2021/12/25 14:20:38;;;;;;;2.15;1.37;;;7.00;91.90;;;;;;1924820;74;21022;-40
2021/12/25 14:23:19;;;;;;;2.77;1.55;;;7.00;92.00;;;;;;1904159;74;21096;-41
2021/12/25 14:25:57;;;;;;;1.65;1.55;;;7.00;91.80;;;;;;1924683;74;21301;-40
2021/12/25 14:28:31;;;;;;;2.40;1.50;;;7.00;92.00;;;;;;1924104;74;21167;-41
2021/12/25 14:31:13;;;;;;;4.77;2.30;;;7.00;92.10;;;;;;1924970;74;21066;-40
2021/12/25 14:34:03;;;;;;;1.60;1.25;;;7.10;92.20;;;;;;1924613;74;20999;-41
2021/12/25 14:36:41;;;;;;;2.75;1.77;;;7.10;92.30;;;;;;1924822;74;21110;-41
2021/12/25 14:39:16;;;;;;;3.12;1.55;;;7.20;92.10;;;;;;1924651;74;21023;-41